Terminal Aerodrome Forecast
Issued by NWS Boston, MA

Current Version | Previous Version | Text Only | Print | Product List | Glossary On
Versions: 1 2 3 4 5 6 7 8 9 10 11 12 13 14 15 16 17 18 19 20 21 22 23
000 FTUS41 KBOX 191729 TAFORH TAF KORH 191729Z 1918/2018 20012G24KT P6SM BKN120 OVC200 FM192200 20009G20KT P6SM VCSH OVC035 FM192300 21009KT 5SM -SHRA OVC035 FM200100 21010KT 4SM -SHRA BR OVC015 FM200300 22011KT 4SM -SHRA BR OVC008 WS020/23040KT FM200800 23010KT 3SM BR OVC008 FM201000 23009KT 3SM BR OVC015 FM201600 23009KT P6SM BKN040=

USA.gov is the U.S. government's official web portal to all federal, state and local government web resources and services.